Time;durP1;ratioP1;P1;durP2;ratioP2;P2;SDS_P1;SDS_P2;PMS_P1;PMS_P2;Temp;Humidity;BMP_temperature;BMP_pressure;BME280_temperature;BME280_humidity;BME280_pressure;Samples;Min_cycle;Max_cycle;Signal;HPM_P1;HPM_P2
2021/05/07 00:00:07;;;;;;;0.90;0.80;;;;;;;3.57;72.96;99747.69;5096787;28;20195;-67
2021/05/07 00:02:34;;;;;;;0.80;0.80;;;;;;;3.53;73.04;99752.31;5102642;28;20249;-68
2021/05/07 00:05:02;;;;;;;1.10;1.10;;;;;;;3.51;73.07;99756.84;5098428;28;20563;-67
2021/05/07 00:07:29;;;;;;;1.00;0.93;;;;;;;3.54;73.14;99754.03;5095139;28;20228;-71
2021/05/07 00:09:57;;;;;;;1.30;0.90;;;;;;;3.53;72.99;99752.31;5103070;27;20192;-71
2021/05/07 00:12:24;;;;;;;1.03;0.90;;;;;;;3.48;73.03;99745.56;5093773;28;20280;-68
2021/05/07 00:14:51;;;;;;;1.10;1.00;;;;;;;3.48;73.26;99753.50;5100569;28;20202;-68
2021/05/07 00:17:19;;;;;;;20.23;10.73;;;;;;;3.43;73.42;99749.31;5103280;28;20687;-68
2021/05/07 00:19:47;;;;;;;1.00;1.00;;;;;;;3.39;73.83;99753.09;5097003;28;20811;-68
2021/05/07 00:22:14;;;;;;;4.77;2.77;;;;;;;3.35;74.82;99756.81;5095319;28;20208;-67
2021/05/07 00:24:42;;;;;;;2.23;2.03;;;;;;;3.39;74.48;99761.03;5092129;28;20754;-68
2021/05/07 00:27:09;;;;;;;1.60;1.30;;;;;;;3.43;74.18;99762.59;5097397;28;20224;-68
2021/05/07 00:29:36;;;;;;;2.70;2.13;;;;;;;3.47;74.08;99760.63;5106074;28;20207;-68
2021/05/07 00:32:04;;;;;;;3.07;1.73;;;;;;;3.38;74.05;99743.41;5103737;28;20217;-71
2021/05/07 00:34:33;;;;;;;1.93;1.70;;;;;;;3.55;73.69;99754.88;5100690;28;20199;-71
2021/05/07 00:37:00;;;;;;;1.17;1.10;;;;;;;3.61;73.53;99759.84;5100530;28;20203;-71
2021/05/07 00:39:27;;;;;;;1.00;1.00;;;;;;;3.60;73.37;99759.00;5096192;28;20224;-71
2021/05/07 00:41:55;;;;;;;1.50;1.37;;;;;;;3.59;73.16;99769.69;5107762;28;20252;-71
2021/05/07 00:44:22;;;;;;;5.70;1.00;;;;;;;3.49;73.32;99755.22;5094835;28;20259;-71
2021/05/07 00:46:49;;;;;;;1.40;1.00;;;;;;;3.51;73.17;99767.47;5099748;28;20220;-71
2021/05/07 00:49:17;;;;;;;1.50;1.30;;;;;;;3.49;72.83;99765.84;5104741;28;20261;-71
2021/05/07 00:51:46;;;;;;;1.37;0.90;;;;;;;3.51;73.12;99769.28;5104704;28;20690;-71
2021/05/07 00:54:13;;;;;;;3.20;2.57;;;;;;;3.50;72.87;99773.72;5097004;28;20581;-71
2021/05/07 00:56:41;;;;;;;1.00;0.90;;;;;;;3.50;72.91;99762.25;5101489;28;20201;-71
2021/05/07 00:59:08;;;;;;;1.00;0.90;;;;;;;3.41;72.72;99753.00;5098843;28;20230;-68
2021/05/07 01:01:36;;;;;;;1.47;1.23;;;;;;;3.45;72.88;99775.78;5091966;28;20227;-68
2021/05/07 01:04:05;;;;;;;0.80;0.80;;;;;;;3.40;72.86;99762.75;5104348;28;20202;-68
2021/05/07 01:06:32;;;;;;;5.40;3.87;;;;;;;3.15;73.42;99745.59;5094595;28;20312;-69
2021/05/07 01:09:00;;;;;;;1.20;1.10;;;;;;;3.28;73.45;99773.16;5095743;28;20198;-68
2021/05/07 01:11:28;;;;;;;0.83;0.83;;;;;;;3.29;73.38;99767.75;5107431;27;20253;-71
2021/05/07 01:13:55;;;;;;;0.80;0.80;;;;;;;3.24;73.28;99769.81;5102115;28;20627;-71
2021/05/07 01:16:23;;;;;;;1.10;1.00;;;;;;;3.23;72.77;99767.25;5092015;28;20564;-71
2021/05/07 01:18:50;;;;;;;1.33;1.10;;;;;;;3.07;72.94;99753.97;5117777;27;20283;-71
2021/05/07 01:21:18;;;;;;;1.10;1.00;;;;;;;3.17;72.98;99770.22;5102312;28;20214;-68
2021/05/07 01:23:46;;;;;;;1.37;1.27;;;;;;;3.03;72.82;99752.38;5096942;28;20274;-68
2021/05/07 01:26:13;;;;;;;1.33;1.13;;;;;;;3.04;72.60;99762.03;5101969;28;20253;-68
2021/05/07 01:28:40;;;;;;;1.23;1.13;;;;;;;2.99;72.90;99766.75;5099639;28;20207;-68
2021/05/07 01:31:07;;;;;;;0.90;0.90;;;;;;;2.93;73.14;99772.38;5101046;28;20206;-68
2021/05/07 01:33:39;;;;;;;1.17;1.07;;;;;;;2.89;73.01;99771.69;5101744;28;20200;-68
2021/05/07 01:36:07;;;;;;;1.20;1.10;;;;;;;2.83;73.00;99768.50;5097094;28;20230;-68
2021/05/07 01:38:37;;;;;;;1.00;0.90;;;;;;;2.80;72.80;99772.16;5097983;28;20204;-68
2021/05/07 01:41:07;;;;;;;1.20;1.10;;;;;;;2.76;73.21;99773.25;5093832;28;20206;-71
2021/05/07 01:43:40;;;;;;;1.13;1.03;;;;;;;2.68;72.94;99770.13;5106083;28;20574;-68
2021/05/07 01:46:08;;;;;;;1.43;1.00;;;;;;;2.69;73.09;99780.66;5091247;28;20199;-68
2021/05/07 01:48:36;;;;;;;0.87;0.87;;;;;;;2.66;73.03;99780.81;5093408;28;20219;-68
2021/05/07 01:51:07;;;;;;;2.83;0.93;;;;;;;2.62;72.89;99779.25;5095086;28;20244;-67
2021/05/07 01:53:39;;;;;;;0.77;0.77;;;;;;;2.50;73.25;99758.69;5107641;28;20202;-68
2021/05/07 01:56:07;;;;;;;0.97;0.97;;;;;;;2.52;73.12;99779.81;5090258;28;20231;-68
2021/05/07 01:58:38;;;;;;;1.30;1.10;;;;;;;2.39;73.08;99768.94;5090200;28;20199;-67
2021/05/07 02:01:06;;;;;;;1.00;0.90;;;;;;;2.40;73.36;99778.59;5094989;28;20204;-67
2021/05/07 02:03:34;;;;;;;0.80;0.80;;;;;;;2.00;73.65;99714.38;5102892;28;20206;-71
2021/05/07 02:06:08;;;;;;;724.40;361.00;;;;;;;2.35;73.13;99775.34;5096754;28;20273;-72
2021/05/07 02:08:39;;;;;;;4.23;2.87;;;;;;;1.71;73.66;99721.09;5106341;28;20581;-71
2021/05/07 02:11:07;;;;;;;2.30;2.00;;;;;;;2.09;73.67;99796.00;5098801;28;20696;-71
2021/05/07 02:13:34;;;;;;;2.40;1.83;;;;;;;2.11;73.93;99794.13;5096278;28;20705;-71
2021/05/07 02:16:02;;;;;;;3.70;1.20;;;;;;;2.11;73.97;99788.84;5090955;28;20674;-71
2021/05/07 02:18:29;;;;;;;5.17;1.40;;;;;;;2.07;74.38;99786.41;5097703;28;20225;-69
2021/05/07 02:21:01;;;;;;;1.10;1.00;;;;;;;2.00;75.52;99796.47;5102340;28;20199;-69
2021/05/07 02:23:32;;;;;;;1.40;1.30;;;;;;;1.96;75.19;99784.31;5091155;28;20207;-68
2021/05/07 02:26:00;;;;;;;2.70;1.70;;;;;;;1.98;75.67;99786.88;5106288;28;20681;-68
2021/05/07 02:28:52;;;;;;;1.00;1.00;;;;;;;1.99;75.00;99783.28;5099360;28;20218;-71
2021/05/07 02:31:21;;;;;;;3.90;1.00;;;;;;;1.98;74.53;99784.22;5100544;28;20203;-72
2021/05/07 02:33:49;;;;;;;1.17;1.07;;;;;;;1.92;74.46;99787.19;5101119;28;20301;-71
2021/05/07 02:36:17;;;;;;;0.90;0.90;;;;;;;1.73;74.27;99766.00;5098846;28;20199;-71
2021/05/07 02:38:44;;;;;;;2.77;1.00;;;;;;;1.91;74.14;99788.97;5105581;28;20208;-71
2021/05/07 02:41:12;;;;;;;1.47;1.30;;;;;;;1.90;74.22;99794.34;5101133;28;20233;-71
2021/05/07 02:43:42;;;;;;;1.63;1.40;;;;;;;1.84;74.08;99780.47;5101017;28;20199;-71
2021/05/07 02:46:15;;;;;;;2.50;1.00;;;;;;;1.83;73.92;99794.59;5101808;28;20300;-71
2021/05/07 02:48:45;;;;;;;1.60;1.10;;;;;;;1.80;74.00;99788.59;5092314;28;20196;-73
2021/05/07 02:51:12;;;;;;;0.90;0.90;;;;;;;1.71;74.41;99783.75;5100164;28;20210;-71
2021/05/07 02:53:40;;;;;;;4.07;1.80;;;;;;;1.74;74.12;99796.84;5102641;28;20200;-71
2021/05/07 02:56:07;;;;;;;0.90;0.90;;;;;;;1.68;74.86;99794.47;5089768;28;20201;-71
2021/05/07 02:58:36;;;;;;;1.07;0.97;;;;;;;1.68;74.84;99805.91;5100125;28;20228;-72
2021/05/07 03:01:03;;;;;;;1.50;1.00;;;;;;;1.67;74.48;99808.63;5102133;28;20194;-71
2021/05/07 03:03:30;;;;;;;0.80;0.80;;;;;;;1.68;74.25;99805.06;5089233;28;20578;-72
2021/05/07 03:05:57;;;;;;;0.80;0.80;;;;;;;1.70;74.04;99808.50;5089711;28;20677;-71
2021/05/07 03:08:25;;;;;;;1.00;0.90;;;;;;;1.70;73.83;99813.78;5104274;28;20233;-71
2021/05/07 03:10:52;;;;;;;1.13;1.00;;;;;;;1.66;74.04;99818.38;5095766;28;20293;-72
2021/05/07 03:13:20;;;;;;;1.30;1.20;;;;;;;1.66;73.82;99818.38;5102561;28;20703;-71
2021/05/07 03:15:48;;;;;;;0.80;0.80;;;;;;;1.67;73.97;99820.09;5098354;28;20200;-71
2021/05/07 03:18:15;;;;;;;2.70;1.17;;;;;;;1.71;74.08;99823.44;5100348;28;20410;-71
2021/05/07 03:20:44;;;;;;;1.03;0.90;;;;;;;1.75;74.35;99823.22;5101707;28;20217;-71
2021/05/07 03:23:12;;;;;;;1.67;1.40;;;;;;;1.94;74.94;99825.88;5091592;28;20630;-71
2021/05/07 03:25:39;;;;;;;1.10;1.00;;;;;;;2.14;75.07;99809.91;5084199;28;20203;-72
2021/05/07 03:28:08;;;;;;;1.23;1.00;;;;;;;2.54;74.94;99831.78;5097805;28;20245;-71
2021/05/07 03:30:35;;;;;;;2.53;1.53;;;;;;;2.86;74.00;99837.25;5095756;28;20208;-72
2021/05/07 03:33:05;;;;;;;1.50;1.10;;;;;;;3.06;73.59;99829.13;5095030;28;20656;-71
2021/05/07 03:35:33;;;;;;;4.30;1.20;;;;;;;3.25;73.47;99832.53;5102674;27;20230;-71
2021/05/07 03:38:01;;;;;;;1.30;1.20;;;;;;;3.48;73.37;99830.47;5120195;27;20209;-71
2021/05/07 03:40:29;;;;;;;1.43;1.07;;;;;;;3.57;73.31;99825.53;5099538;28;20690;-71
2021/05/07 03:42:56;;;;;;;1.03;1.00;;;;;;;3.58;72.68;99826.38;5095486;28;20204;-71
2021/05/07 03:45:23;;;;;;;1.33;1.07;;;;;;;3.42;72.48;99827.22;5100887;27;20201;-71
2021/05/07 03:47:50;;;;;;;1.30;1.20;;;;;;;3.56;72.60;99836.22;5102815;27;20372;-71
2021/05/07 03:50:19;;;;;;;7.03;1.20;;;;;;;3.50;72.53;99834.75;5099671;28;20668;-71
2021/05/07 03:52:46;;;;;;;1.67;1.17;;;;;;;3.40;72.58;99842.38;5099766;28;20661;-71
2021/05/07 03:55:14;;;;;;;1.33;1.10;;;;;;;3.23;72.30;99834.41;5100974;27;20684;-68
2021/05/07 03:57:42;;;;;;;1.47;1.07;;;;;;;3.24;72.35;99843.22;5101131;27;20444;-68
2021/05/07 04:00:11;;;;;;;2.20;1.40;;;;;;;3.20;72.72;99837.22;5107852;27;20629;-68
2021/05/07 04:02:44;;;;;;;1.30;1.20;;;;;;;2.90;72.91;99789.28;5102996;27;20253;-69
2021/05/07 04:05:12;;;;;;;1.03;0.83;;;;;;;3.28;73.27;99844.78;5101108;28;20292;-69
2021/05/07 04:07:41;;;;;;;1.53;0.87;;;;;;;3.38;73.23;99860.16;5097463;28;20496;-69
2021/05/07 04:10:15;;;;;;;1.30;1.20;;;;;;;3.39;73.56;99856.56;5103624;27;20686;-69
2021/05/07 04:15:28;;;;;;;2.87;1.37;;;;;;;3.47;73.22;99858.81;5101747;27;20201;-68
2021/05/07 04:17:56;;;;;;;1.93;1.33;;;;;;;3.47;73.22;99852.66;5105956;27;20563;-68
2021/05/07 04:20:23;;;;;;;43.97;19.80;;;;;;;3.55;73.23;99861.03;5098060;27;20570;-71
2021/05/07 04:22:51;;;;;;;3.50;2.20;;;;;;;3.50;73.09;99857.78;5093723;28;20303;-71
2021/05/07 04:25:18;;;;;;;3.10;2.57;;;;;;;3.53;73.68;99868.22;5103463;27;20950;-70
2021/05/07 04:27:45;;;;;;;2.70;1.90;;;;;;;3.49;73.64;99872.00;5099654;27;20299;-70
2021/05/07 04:30:14;;;;;;;1.77;1.23;;;;;;;3.51;74.09;99868.31;5105669;28;20201;-69
2021/05/07 04:32:41;;;;;;;1.50;1.40;;;;;;;3.57;74.49;99875.09;5097708;28;20663;-70
2021/05/07 04:35:09;;;;;;;1.93;0.90;;;;;;;3.70;74.56;99877.03;5097704;28;20203;-71
2021/05/07 04:37:36;;;;;;;4.03;1.00;;;;;;;3.90;74.31;99872.41;5099698;28;20736;-71
2021/05/07 04:40:06;;;;;;;1.73;1.10;;;;;;;4.05;74.48;99874.25;5104982;27;20213;-72
2021/05/07 04:42:34;;;;;;;2.63;1.30;;;;;;;4.25;74.67;99878.44;5097032;28;20521;-72
2021/05/07 04:45:01;;;;;;;1.30;1.20;;;;;;;4.42;74.54;99867.72;5109702;27;20222;-71
2021/05/07 04:47:28;;;;;;;2.30;1.07;;;;;;;4.63;74.32;99870.97;5093140;28;20211;-71
2021/05/07 04:49:55;;;;;;;1.60;1.50;;;;;;;4.82;73.66;99860.13;5099750;28;20188;-71
2021/05/07 04:52:23;;;;;;;1.53;1.40;;;;;;;5.00;73.49;99861.72;5101287;28;20237;-71
2021/05/07 04:54:51;;;;;;;2.70;1.20;;;;;;;5.20;72.90;99864.06;5105907;28;20200;-71
2021/05/07 04:57:19;;;;;;;1.83;1.73;;;;;;;5.29;71.66;99863.50;5098089;28;20227;-71
2021/05/07 04:59:46;;;;;;;1.67;0.90;;;;;;;5.40;71.84;99869.97;5102001;28;20288;-72
2021/05/07 05:02:13;;;;;;;1.00;0.90;;;;;;;5.64;71.35;99873.78;5101568;28;20282;-71
2021/05/07 05:04:41;;;;;;;0.77;0.70;;;;;;;5.67;70.58;99857.63;5100821;28;20201;-72
2021/05/07 05:07:09;;;;;;;0.83;0.83;;;;;;;5.66;69.89;99839.94;5103439;28;20218;-71
2021/05/07 05:09:36;;;;;;;1.00;0.90;;;;;;;6.09;68.89;99871.91;5098605;28;20193;-71
2021/05/07 05:12:04;;;;;;;1.27;0.90;;;;;;;6.15;69.40;99871.53;5103729;28;20201;-71
2021/05/07 05:14:32;;;;;;;0.80;0.80;;;;;;;6.11;69.16;99830.00;5097140;28;20242;-72
2021/05/07 05:16:59;;;;;;;1.10;1.00;;;;;;;6.63;68.79;99879.97;5104073;28;20205;-72
2021/05/07 05:19:27;;;;;;;1.20;1.10;;;;;;;6.56;66.75;99884.00;5094841;28;20298;-71
2021/05/07 05:21:54;;;;;;;3.47;1.00;;;;;;;6.57;66.40;99880.38;5092353;28;20199;-71
2021/05/07 05:24:21;;;;;;;1.10;0.80;;;;;;;6.82;67.24;99881.34;5093992;28;20202;-72
2021/05/07 05:26:48;;;;;;;1.07;0.90;;;;;;;7.10;66.16;99879.50;5093066;28;20571;-71
2021/05/07 05:29:15;;;;;;;0.63;0.63;;;;;;;7.17;65.68;99883.44;5094005;28;20195;-72
2021/05/07 05:31:44;;;;;;;1.13;0.90;;;;;;;7.24;63.18;99887.41;5097180;28;20611;-72
2021/05/07 05:34:11;;;;;;;0.90;0.90;;;;;;;7.18;63.37;99892.31;5094436;28;20568;-72
2021/05/07 05:36:45;;;;;;;0.80;0.80;;;;;;;7.39;64.19;99897.06;5095968;28;20254;-72
2021/05/07 05:39:14;;;;;;;1.13;1.10;;;;;;;7.50;62.58;99893.66;5100650;28;20207;-73
2021/05/07 05:41:42;;;;;;;0.70;0.70;;;;;;;7.81;64.08;99887.03;5102919;28;20565;-72
2021/05/07 05:44:09;;;;;;;0.80;0.80;;;;;;;7.97;63.22;99890.34;5101750;28;20490;-74
2021/05/07 05:46:38;;;;;;;0.90;0.90;;;;;;;8.04;61.63;99894.28;5101719;28;20252;-73
2021/05/07 05:49:06;;;;;;;0.97;0.73;;;;;;;8.00;61.30;99894.63;5103427;28;20188;-73
2021/05/07 05:51:34;;;;;;;0.87;0.87;;;;;;;8.32;61.94;99886.97;5101668;28;20195;-71
2021/05/07 05:54:02;;;;;;;0.73;0.70;;;;;;;8.60;61.24;99891.19;5101114;27;20298;-71
2021/05/07 05:56:29;;;;;;;0.63;0.63;;;;;;;8.80;60.15;99879.84;5092213;28;20204;-71
2021/05/07 05:58:56;;;;;;;0.70;0.70;;;;;;;9.03;60.20;99889.69;5088526;27;20575;-71
2021/05/07 06:01:23;;;;;;;0.67;0.67;;;;;;;8.98;57.34;99891.88;5099893;28;20236;-71
2021/05/07 06:03:50;;;;;;;0.60;0.60;;;;;;;8.74;55.67;99896.38;5091051;27;20192;-72
2021/05/07 06:06:19;;;;;;;0.73;0.73;;;;;;;8.79;56.95;99896.88;5091683;28;20226;-71
2021/05/07 06:08:46;;;;;;;0.90;0.90;;;;;;;9.25;58.17;99894.31;5096980;28;20220;-71
2021/05/07 06:11:13;;;;;;;0.80;0.80;;;;;;;9.60;57.26;99896.94;5100306;28;20299;-72
2021/05/07 06:13:40;;;;;;;0.80;0.80;;;;;;;9.52;55.56;99901.19;5091422;28;20196;-72
2021/05/07 06:16:08;;;;;;;0.80;0.80;;;;;;;9.52;53.59;99895.84;5102071;28;20222;-72
2021/05/07 06:18:35;;;;;;;0.83;0.73;;;;;;;9.39;54.77;99890.56;5093242;28;20678;-72
2021/05/07 06:21:02;;;;;;;0.73;0.73;;;;;;;9.57;54.57;99902.56;5093459;28;20215;-72
2021/05/07 06:23:31;;;;;;;0.70;0.70;;;;;;;9.44;54.71;99904.44;5096980;28;20296;-72
2021/05/07 06:25:59;;;;;;;0.70;0.70;;;;;;;9.12;54.32;99887.28;5096370;28;20192;-72
2021/05/07 06:28:26;;;;;;;1.00;1.00;;;;;;;9.54;53.45;99897.44;5100341;28;20243;-72
2021/05/07 06:30:58;;;;;;;0.97;0.90;;;;;;;9.89;55.14;99883.94;5097155;28;20207;-72
2021/05/07 06:33:25;;;;;;;1.10;0.80;;;;;;;10.41;54.00;99903.13;5097909;28;20542;-71
2021/05/07 06:35:52;;;;;;;1.20;1.10;;;;;;;10.74;55.19;99908.44;5094703;28;20401;-72
2021/05/07 06:38:20;;;;;;;0.80;0.80;;;;;;;10.78;51.57;99909.88;5099088;28;20301;-71
2021/05/07 06:40:48;;;;;;;3.50;0.90;;;;;;;11.00;53.31;99908.94;5094516;28;20202;-71
2021/05/07 06:43:15;;;;;;;0.90;0.90;;;;;;;11.51;52.96;99910.94;5101926;28;20723;-70
2021/05/07 06:45:43;;;;;;;1.00;1.00;;;;;;;11.77;52.63;99914.09;5106555;28;20313;-71
2021/05/07 06:48:10;;;;;;;1.00;1.00;;;;;;;11.66;50.41;99914.16;5105144;28;20240;-72
2021/05/07 06:50:37;;;;;;;1.03;0.93;;;;;;;11.60;50.13;99918.22;5096546;28;20670;-72
2021/05/07 06:53:04;;;;;;;1.33;0.97;;;;;;;10.80;49.46;99913.31;5100778;28;20279;-72
2021/05/07 06:55:32;;;;;;;1.00;1.00;;;;;;;10.49;49.92;99925.69;5094201;28;20200;-72
2021/05/07 06:58:00;;;;;;;0.90;0.90;;;;;;;10.37;51.07;99926.66;5100507;28;20197;-72
2021/05/07 07:00:27;;;;;;;1.07;0.97;;;;;;;10.58;51.34;99924.06;5093152;28;20208;-71
2021/05/07 07:02:54;;;;;;;1.13;1.03;;;;;;;11.13;51.98;99919.56;5102546;28;20634;-71
2021/05/07 07:05:21;;;;;;;1.20;1.10;;;;;;;11.01;51.58;99909.81;5108330;28;20686;-71
2021/05/07 07:07:48;;;;;;;1.20;1.10;;;;;;;11.02;50.36;99887.31;5109360;28;20217;-71
2021/05/07 07:10:20;;;;;;;1.10;1.10;;;;;;;11.17;51.26;99913.78;5099259;28;20194;-70
2021/05/07 07:12:47;;;;;;;0.97;0.97;;;;;;;11.57;51.96;99901.50;5122398;27;20236;-71
2021/05/07 07:15:16;;;;;;;1.37;1.10;;;;;;;12.11;51.33;99915.59;5099312;28;20291;-71
2021/05/07 07:17:43;;;;;;;1.20;1.20;;;;;;;12.33;48.31;99916.41;5107650;28;20690;-73
2021/05/07 07:20:11;;;;;;;0.90;0.90;;;;;;;11.83;48.19;99884.00;5112273;28;20333;-72
2021/05/07 07:22:39;;;;;;;1.30;1.20;;;;;;;12.27;49.36;99917.81;5104601;28;20202;-71
2021/05/07 07:25:07;;;;;;;1.10;1.10;;;;;;;11.91;48.43;99916.47;5111367;28;20277;-71
2021/05/07 07:27:34;;;;;;;1.10;1.10;;;;;;;11.69;48.98;99922.81;5106920;27;20245;-72
2021/05/07 07:30:01;;;;;;;1.27;1.10;;;;;;;12.13;48.19;99921.69;5098575;28;20206;-72
2021/05/07 07:32:30;;;;;;;5.90;1.20;;;;;;;11.76;48.36;99845.13;5107766;28;20229;-72
2021/05/07 07:34:59;;;;;;;1.00;1.00;;;;;;;12.35;47.98;99930.56;5108954;28;20199;-71
2021/05/07 07:37:27;;;;;;;1.30;1.20;;;;;;;12.58;47.86;99924.00;5101803;28;20195;-72
2021/05/07 07:39:54;;;;;;;1.00;1.00;;;;;;;12.80;47.91;99922.91;5099927;28;20277;-72
2021/05/07 07:42:22;;;;;;;1.10;1.10;;;;;;;12.64;46.58;99926.16;5111022;28;20677;-72
2021/05/07 07:44:50;;;;;;;1.33;1.20;;;;;;;12.54;47.73;99925.25;5103931;28;20218;-72
2021/05/07 07:47:17;;;;;;;1.10;1.00;;;;;;;11.92;46.14;99923.53;5110283;28;20718;-71
2021/05/07 07:49:46;;;;;;;1.30;1.20;;;;;;;11.28;47.19;99920.94;5097823;28;20198;-70
2021/05/07 07:52:15;;;;;;;1.30;1.20;;;;;;;11.27;47.95;99927.28;5089174;28;20206;-70
2021/05/07 07:54:42;;;;;;;1.10;1.00;;;;;;;11.75;47.29;99932.19;5096068;28;20672;-71
2021/05/07 07:57:09;;;;;;;1.70;1.00;;;;;;;12.06;47.67;99925.91;5109498;28;20679;-72
2021/05/07 07:59:36;;;;;;;1.07;1.07;;;;;;;12.12;49.06;99930.75;5104506;28;20296;-69
2021/05/07 08:02:04;;;;;;;0.97;0.97;;;;;;;11.93;47.36;99921.72;5103002;28;20763;-70
2021/05/07 08:04:31;;;;;;;1.17;1.07;;;;;;;11.79;47.93;99912.16;5099795;28;20193;-70
2021/05/07 08:07:00;;;;;;;1.10;1.00;;;;;;;12.08;47.89;99929.31;5104897;28;20219;-71
2021/05/07 08:09:27;;;;;;;1.00;1.00;;;;;;;12.00;46.25;99936.34;5098338;28;20279;-71
2021/05/07 08:11:54;;;;;;;1.20;1.10;;;;;;;11.55;47.77;99927.66;5099079;28;20271;-71
2021/05/07 08:14:27;;;;;;;1.20;1.10;;;;;;;11.80;48.02;99935.38;5099059;28;20204;-71
2021/05/07 08:16:54;;;;;;;1.10;1.00;;;;;;;11.16;45.37;99911.22;5103006;27;20200;-71
2021/05/07 08:19:23;;;;;;;1.10;1.10;;;;;;;10.92;46.64;99922.16;5110049;27;20237;-71
2021/05/07 08:21:51;;;;;;;1.03;1.00;;;;;;;11.28;48.69;99922.78;5098479;27;20684;-71
2021/05/07 08:24:19;;;;;;;1.20;1.10;;;;;;;11.72;48.46;99927.09;5097368;28;20284;-71
2021/05/07 08:26:46;;;;;;;0.80;0.80;;;;;;;11.41;46.46;99862.47;5101291;28;20557;-71
2021/05/07 08:29:14;;;;;;;1.27;0.90;;;;;;;11.62;44.15;99899.25;5102231;28;20214;-71
2021/05/07 08:31:41;;;;;;;0.90;0.90;;;;;;;10.65;44.91;99844.72;5109348;28;20591;-71
2021/05/07 08:34:08;;;;;;;1.20;1.10;;;;;;;11.16;46.70;99938.09;5109202;28;20227;-71
2021/05/07 08:36:35;;;;;;;1.00;1.00;;;;;;;11.79;46.69;99936.38;5119441;27;20700;-71
2021/05/07 08:39:04;;;;;;;1.03;1.00;;;;;;;12.42;47.33;99937.13;5091948;28;20198;-71
2021/05/07 08:41:32;;;;;;;1.13;1.03;;;;;;;12.69;46.68;99869.16;5103822;28;20291;-71
2021/05/07 08:43:59;;;;;;;0.90;0.90;;;;;;;12.93;44.42;99882.25;5094621;28;20569;-72
2021/05/07 08:46:26;;;;;;;0.93;0.93;;;;;;;13.16;44.54;99945.66;5095588;28;20581;-71
2021/05/07 08:48:54;;;;;;;0.90;0.90;;;;;;;12.79;44.72;99945.47;5106203;28;20278;-72
2021/05/07 08:51:22;;;;;;;1.07;1.03;;;;;;;12.33;43.46;99954.94;5095463;28;20219;-71
2021/05/07 08:53:57;;;;;;;0.90;0.90;;;;;;;11.74;43.82;99904.44;5094832;28;20210;-70
2021/05/07 08:56:35;;;;;;;0.73;0.73;;;;;;;11.61;44.51;99954.03;5094715;28;20691;-71
2021/05/07 08:59:02;;;;;;;2.33;1.00;;;;;;;11.08;42.69;99946.81;5096645;28;20213;-70
2021/05/07 09:01:44;;;;;;;0.80;0.80;;;;;;;11.02;44.40;99952.69;5094303;28;20231;-70
2021/05/07 09:04:12;;;;;;;1.10;1.07;;;;;;;11.23;44.40;99947.34;5097674;28;20205;-70
2021/05/07 09:06:41;;;;;;;0.83;0.80;;;;;;;11.47;43.49;99949.81;5098956;28;20204;-71
2021/05/07 09:09:19;;;;;;;1.00;1.00;;;;;;;12.10;43.08;99954.25;5088856;28;20449;-71
2021/05/07 09:11:48;;;;;;;1.10;1.10;;;;;;;12.71;44.31;99959.63;5096595;28;20200;-71
2021/05/07 09:14:15;;;;;;;1.27;0.90;;;;;;;13.24;42.97;99953.97;5101046;28;20206;-71
2021/05/07 09:16:56;;;;;;;0.83;0.83;;;;;;;12.94;41.88;99954.03;5100854;28;20248;-71
2021/05/07 09:19:25;;;;;;;1.00;1.00;;;;;;;12.24;39.39;99947.66;5103430;28;20213;-71
2021/05/07 09:21:53;;;;;;;0.90;0.90;;;;;;;12.59;42.68;99925.72;5104644;28;20222;-72
2021/05/07 09:24:30;;;;;;;0.90;0.90;;;;;;;13.02;41.31;99962.25;5105479;28;20563;-70
2021/05/07 09:26:58;;;;;;;1.00;0.90;;;;;;;12.91;43.37;99948.91;5104946;28;20413;-71
2021/05/07 09:29:28;;;;;;;1.80;0.80;;;;;;;12.99;43.84;99974.16;5106270;28;20232;-70
2021/05/07 09:31:56;;;;;;;0.87;0.87;;;;;;;12.50;43.76;99915.72;5103524;28;20194;-70
2021/05/07 09:34:23;;;;;;;0.90;0.90;;;;;;;12.57;44.52;99978.03;5101049;28;20210;-70
2021/05/07 09:36:51;;;;;;;1.23;1.00;;;;;;;12.34;43.45;99977.34;5093698;28;20699;-70
2021/05/07 09:39:22;;;;;;;0.90;0.90;;;;;;;12.31;45.20;99977.59;5092997;28;20638;-70
2021/05/07 09:41:52;;;;;;;0.90;0.90;;;;;;;12.01;44.47;99959.59;5093606;28;20205;-71
2021/05/07 09:44:22;;;;;;;0.83;0.83;;;;;;;12.01;43.30;99981.13;5100114;28;20191;-70
2021/05/07 09:46:51;;;;;;;0.80;0.80;;;;;;;11.47;42.14;99956.06;5101038;28;20197;-70
2021/05/07 09:49:22;;;;;;;0.97;0.80;;;;;;;11.75;43.42;99977.94;5099945;28;20623;-71
2021/05/07 09:51:50;;;;;;;0.90;0.90;;;;;;;12.19;43.38;99974.13;5097539;28;20206;-71
2021/05/07 09:54:17;;;;;;;1.00;1.00;;;;;;;12.39;43.69;99977.78;5099010;28;20597;-71
2021/05/07 09:56:45;;;;;;;1.77;1.10;;;;;;;12.60;42.46;99973.22;5105838;28;20203;-71
2021/05/07 09:59:12;;;;;;;1.00;1.00;;;;;;;13.15;44.16;99976.31;5103666;27;20200;-72
2021/05/07 10:01:44;;;;;;;0.80;0.80;;;;;;;13.28;41.70;99986.88;5097160;28;20246;-71
2021/05/07 10:04:11;;;;;;;1.00;1.00;;;;;;;13.25;41.07;99979.94;5100079;28;20219;-70
2021/05/07 10:06:38;;;;;;;1.33;1.00;;;;;;;13.14;43.11;99988.09;5091789;28;20666;-71
2021/05/07 10:09:07;;;;;;;1.37;0.90;;;;;;;12.54;40.42;99991.72;5097229;28;20271;-71
2021/05/07 10:11:37;;;;;;;1.40;1.13;;;;;;;12.13;41.32;100005.13;5094184;28;20213;-71
2021/05/07 10:14:08;;;;;;;1.33;1.20;;;;;;;11.70;42.06;99989.09;5099750;28;20192;-72
2021/05/07 10:16:36;;;;;;;0.80;0.80;;;;;;;11.57;42.10;99996.47;5095603;28;20205;-71
2021/05/07 10:19:07;;;;;;;1.00;1.00;;;;;;;11.30;42.24;99996.91;5098793;28;20252;-71
2021/05/07 10:21:39;;;;;;;1.10;1.00;;;;;;;11.33;43.01;99994.00;5095293;28;20218;-72
2021/05/07 10:24:08;;;;;;;1.43;1.10;;;;;;;10.99;42.62;100003.09;5094807;28;20191;-72
2021/05/07 10:26:39;;;;;;;1.20;1.10;;;;;;;10.57;43.52;99994.88;5097206;28;20788;-71
2021/05/07 10:29:20;;;;;;;0.87;0.83;;;;;;;10.23;43.74;99957.28;5094510;28;20284;-71
2021/05/07 10:31:49;;;;;;;1.17;1.17;;;;;;;9.92;42.39;100000.84;5097789;28;20202;-71
2021/05/07 10:34:19;;;;;;;0.90;0.90;;;;;;;10.16;44.94;100001.66;5099400;28;20195;-71
2021/05/07 10:37:13;;;;;;;1.00;0.90;;;;;;;10.89;45.65;100000.31;5098062;28;20210;-72
2021/05/07 10:39:52;;;;;;;1.50;1.20;;;;;;;11.57;45.50;99998.28;5100589;28;20203;-72
2021/05/07 10:42:20;;;;;;;1.70;1.10;;;;;;;11.74;44.05;99989.69;5099271;28;20204;-72
2021/05/07 10:44:52;;;;;;;1.10;1.00;;;;;;;12.25;44.06;100005.94;5100795;28;20905;-72
2021/05/07 10:47:20;;;;;;;1.07;1.00;;;;;;;11.89;42.56;99983.00;5103681;28;20189;-71
2021/05/07 10:49:49;;;;;;;0.93;0.93;;;;;;;11.92;41.20;100006.09;5098610;28;20226;-72
2021/05/07 10:52:16;;;;;;;1.10;1.00;;;;;;;11.64;41.62;100012.97;5102779;28;20199;-72
2021/05/07 10:54:46;;;;;;;1.00;0.97;;;;;;;11.30;42.12;100013.06;5106462;27;20187;-70
2021/05/07 10:57:20;;;;;;;0.97;0.97;;;;;;;11.07;41.45;100016.78;5101758;28;20581;-70
2021/05/07 10:59:55;;;;;;;0.80;0.80;;;;;;;10.81;42.11;99973.25;5098468;28;20726;-71
2021/05/07 11:02:23;;;;;;;0.90;0.87;;;;;;;11.24;42.06;100016.25;5117187;27;20679;-70
2021/05/07 11:04:52;;;;;;;1.20;0.90;;;;;;;10.87;40.25;100021.94;5100571;28;20212;-71
2021/05/07 11:07:27;;;;;;;0.80;0.80;;;;;;;11.11;40.92;100020.94;5097338;28;20204;-71
2021/05/07 11:10:01;;;;;;;0.90;0.90;;;;;;;10.74;39.75;100017.69;5101837;28;20916;-71
2021/05/07 11:12:28;;;;;;;1.07;1.00;;;;;;;10.41;41.39;100002.44;5098937;28;20212;-71
2021/05/07 11:14:55;;;;;;;0.93;0.93;;;;;;;10.13;40.85;100009.09;5101224;28;20232;-71
2021/05/07 11:17:23;;;;;;;1.03;1.03;;;;;;;10.11;41.03;100009.19;5099937;28;20192;-71
2021/05/07 11:19:52;;;;;;;0.80;0.80;;;;;;;10.04;40.68;100005.25;5103520;28;20213;-72
2021/05/07 11:22:25;;;;;;;1.10;1.00;;;;;;;10.57;42.96;100013.66;5105315;28;20869;-71
2021/05/07 11:24:53;;;;;;;0.90;0.90;;;;;;;10.63;41.85;100017.69;5112052;27;20676;-71
2021/05/07 11:27:22;;;;;;;0.90;0.90;;;;;;;10.91;43.04;100011.81;5103923;28;20232;-71
2021/05/07 11:29:52;;;;;;;0.93;0.93;;;;;;;10.71;42.17;100021.44;5103717;28;20224;-71
2021/05/07 11:32:21;;;;;;;1.30;1.00;;;;;;;10.54;42.31;100003.16;5103158;28;20201;-71
2021/05/07 11:34:54;;;;;;;0.93;0.93;;;;;;;10.25;43.80;100000.94;5100225;28;20223;-71
2021/05/07 11:37:23;;;;;;;0.93;0.93;;;;;;;10.43;45.03;100030.00;5097340;28;20203;-71
2021/05/07 11:39:56;;;;;;;1.10;1.10;;;;;;;10.03;43.78;100030.38;5100084;28;20243;-71
2021/05/07 11:42:28;;;;;;;1.07;1.07;;;;;;;9.75;44.38;100036.13;5100460;28;20222;-71
2021/05/07 11:44:55;;;;;;;1.20;1.07;;;;;;;9.93;44.75;100037.44;5095816;28;20307;-71